createdAt,value
2018-12-06T00:01:58.960Z,7.54
2018-12-06T00:04:40.447Z,7.46
2018-12-06T00:07:13.611Z,7.44
2018-12-06T00:09:55.458Z,7.48
2018-12-06T00:12:37.640Z,7.44
2018-12-06T00:15:27.781Z,7.44
2018-12-06T00:18:01.063Z,7.43
2018-12-06T00:20:36.789Z,7.37
2018-12-06T00:23:18.076Z,7.37
2018-12-06T00:26:00.066Z,7.39
2018-12-06T00:28:32.498Z,7.37
2018-12-06T00:31:13.972Z,7.40
2018-12-06T00:33:55.874Z,7.42
2018-12-06T00:36:37.692Z,7.40
2018-12-06T00:39:09.003Z,7.37
2018-12-06T00:41:50.685Z,7.39
2018-12-06T00:44:21.922Z,7.40
2018-12-06T00:46:55.202Z,7.44
2018-12-06T00:52:36.936Z,7.42
2018-12-06T00:55:08.336Z,7.43
2018-12-06T00:57:41.384Z,7.42
2018-12-06T01:00:22.480Z,7.41
2018-12-06T01:02:55.105Z,7.40
2018-12-06T01:05:37.084Z,7.38
2018-12-06T01:08:09.708Z,7.36
2018-12-06T01:10:51.393Z,7.34
2018-12-06T01:13:26.153Z,7.32
2018-12-06T01:16:01.156Z,7.36
2018-12-06T01:18:33.924Z,7.35
2018-12-06T01:21:19.881Z,7.39
2018-12-06T01:24:01.861Z,7.53
2018-12-06T01:26:36.687Z,7.58
2018-12-06T01:29:11.603Z,7.52
2018-12-06T01:31:51.940Z,7.48
2018-12-06T01:34:33.461Z,7.54
2018-12-06T01:37:06.578Z,7.51
2018-12-06T01:39:48.393Z,7.46
2018-12-06T01:42:29.520Z,7.36
2018-12-06T01:45:04.566Z,7.35
2018-12-06T01:47:37.159Z,7.25
2018-12-06T01:50:18.272Z,7.21
2018-12-06T01:53:00.161Z,7.22
2018-12-06T01:55:42.143Z,7.19
2018-12-06T01:58:15.403Z,7.32
2018-12-06T02:00:56.828Z,7.29
2018-12-06T02:03:38.817Z,7.26
2018-12-06T02:06:20.937Z,7.26
2018-12-06T02:08:53.588Z,7.28
2018-12-06T02:11:35.535Z,7.34
2018-12-06T02:14:17.441Z,7.31
2018-12-06T02:16:59.703Z,7.24
2018-12-06T02:19:41.615Z,7.24
2018-12-06T02:22:19.473Z,7.21
2018-12-06T02:25:01.372Z,7.21
2018-12-06T02:27:34.647Z,7.26
2018-12-06T02:30:16.019Z,7.24
2018-12-06T02:32:47.396Z,7.25
2018-12-06T02:35:29.409Z,7.21
2018-12-06T02:38:02.816Z,7.18
2018-12-06T02:40:44.577Z,7.09
2018-12-06T02:43:26.611Z,6.99
2018-12-06T02:46:08.481Z,7.00
2018-12-06T02:48:41.730Z,6.98
2018-12-06T02:51:22.916Z,6.97
2018-12-06T02:54:12.324Z,6.99
2018-12-06T02:56:53.704Z,7.00
2018-12-06T02:59:35.753Z,6.99
2018-12-06T03:02:17.532Z,6.97
2018-12-06T03:04:48.831Z,6.94
2018-12-06T03:07:30.757Z,6.98
2018-12-06T03:10:12.808Z,6.99
2018-12-06T03:12:43.633Z,6.98
2018-12-06T03:15:25.641Z,7.08
2018-12-06T03:18:01.247Z,7.16
2018-12-06T03:20:36.480Z,7.19
2018-12-06T03:23:18.183Z,7.24
2018-12-06T03:25:52.971Z,7.29
2018-12-06T03:28:25.824Z,7.23
2018-12-06T03:30:56.986Z,7.25
2018-12-06T03:33:28.233Z,7.27
2018-12-06T03:36:10.207Z,7.27
2018-12-06T03:38:42.552Z,7.28
2018-12-06T03:41:13.958Z,7.33
2018-12-06T03:43:44.896Z,7.33
2018-12-06T03:46:16.180Z,7.35
2018-12-06T03:48:49.419Z,7.35
2018-12-06T03:51:19.933Z,7.32
2018-12-06T03:54:00.996Z,7.35
2018-12-06T03:56:42.876Z,7.36
2018-12-06T03:59:24.715Z,7.38
2018-12-06T04:02:06.091Z,7.38
2018-12-06T04:04:37.024Z,7.42
2018-12-06T04:07:19.069Z,7.36
2018-12-06T04:10:01.659Z,7.38
2018-12-06T04:12:34.590Z,7.40
2018-12-06T04:15:09.928Z,7.42
2018-12-06T04:17:42.384Z,7.39
2018-12-06T04:20:23.491Z,7.41
2018-12-06T04:23:04.685Z,7.43
2018-12-06T04:25:46.564Z,7.45
2018-12-06T04:28:18.949Z,7.47
2018-12-06T04:31:00.621Z,7.51
2018-12-06T04:33:36.236Z,7.48
2018-12-06T04:36:17.512Z,7.51
2018-12-06T04:38:52.257Z,7.52
2018-12-06T04:41:33.667Z,7.57
2018-12-06T04:44:15.900Z,7.56
2018-12-06T04:46:47.054Z,7.53
2018-12-06T04:49:18.306Z,7.53
2018-12-06T04:52:00.100Z,7.54
2018-12-06T04:54:35.736Z,7.56
2018-12-06T04:57:08.272Z,7.58
2018-12-06T04:59:43.833Z,7.60
2018-12-06T05:02:25.464Z,7.57
2018-12-06T05:05:06.594Z,7.57
2018-12-06T05:07:39.740Z,7.56
2018-12-06T05:10:20.859Z,7.62
2018-12-06T05:12:53.988Z,7.62
2018-12-06T05:15:36.136Z,7.61
2018-12-06T05:18:11.105Z,7.63
2018-12-06T05:20:52.185Z,7.63
2018-12-06T05:23:23.445Z,7.65
2018-12-06T05:25:56.623Z,7.66
2018-12-06T05:28:27.775Z,7.66
2018-12-06T05:31:09.689Z,7.66
2018-12-06T05:33:50.808Z,7.67
2018-12-06T05:36:32.712Z,7.66
2018-12-06T05:39:07.704Z,7.67
2018-12-06T05:41:49.144Z,7.68
2018-12-06T05:44:30.246Z,7.72
2018-12-06T05:47:06.160Z,7.72
2018-12-06T05:49:47.447Z,7.73
2018-12-06T05:52:29.338Z,7.71
2018-12-06T05:55:11.345Z,7.78
2018-12-06T05:57:45.597Z,7.83
2018-12-06T06:00:26.863Z,8.02
2018-12-06T06:03:20.241Z,7.99
2018-12-06T06:06:01.820Z,8.11
2018-12-06T06:08:37.755Z,8.18
2018-12-06T06:11:18.915Z,8.17
2018-12-06T06:14:00.996Z,8.25
2018-12-06T06:16:42.941Z,8.14
2018-12-06T06:19:17.695Z,8.04
2018-12-06T06:21:59.127Z,8.14
2018-12-06T06:27:32.187Z,8.07
2018-12-06T06:30:13.279Z,8.04
2018-12-06T06:32:54.444Z,8.05
2018-12-06T06:35:35.536Z,8.09
2018-12-06T06:38:08.628Z,8.08
2018-12-06T06:40:50.745Z,8.11
2018-12-06T06:43:25.635Z,8.15
2018-12-06T06:46:06.847Z,8.33
2018-12-06T06:48:40.043Z,8.46
2018-12-06T06:51:11.315Z,8.48
2018-12-06T06:53:53.272Z,8.47
2018-12-06T06:56:24.424Z,8.84
2018-12-06T06:58:58.537Z,8.88
2018-12-06T07:01:41.777Z,8.99
2018-12-06T07:04:23.716Z,9.14
2018-12-06T07:06:57.098Z,8.96
2018-12-06T07:09:28.237Z,8.96
2018-12-06T07:12:10.065Z,8.89
2018-12-06T07:14:51.844Z,8.98
2018-12-06T07:17:25.067Z,8.95
2018-12-06T07:20:07.189Z,8.96
2018-12-06T07:22:49.209Z,8.98
2018-12-06T07:25:31.033Z,9.01
2018-12-06T07:28:06.113Z,9.06
2018-12-06T07:30:43.570Z,9.06
2018-12-06T07:33:25.297Z,9.13
2018-12-06T07:36:06.443Z,9.18
2018-12-06T07:38:39.716Z,9.22
2018-12-06T07:41:21.601Z,9.26
2018-12-06T07:44:03.673Z,9.22
2018-12-06T07:46:45.577Z,9.22
2018-12-06T07:49:27.517Z,9.26
2018-12-06T07:52:08.684Z,9.24
2018-12-06T07:54:50.790Z,9.20
2018-12-06T07:57:23.138Z,9.35
2018-12-06T07:59:54.104Z,9.42
2018-12-06T08:02:36.018Z,9.34
2018-12-06T08:05:17.909Z,9.29
2018-12-06T08:07:50.368Z,9.25
2018-12-06T08:10:32.486Z,9.32
2018-12-06T08:13:14.363Z,9.33
2018-12-06T08:15:56.398Z,9.27
2018-12-06T08:18:31.852Z,9.31
2018-12-06T08:21:13.499Z,9.30
2018-12-06T08:23:55.396Z,9.44
2018-12-06T08:26:37.488Z,9.51
2018-12-06T08:29:10.035Z,9.39
2018-12-06T08:31:51.956Z,9.42
2018-12-06T08:34:33.683Z,9.45
2018-12-06T08:37:06.956Z,9.43
2018-12-06T08:39:48.824Z,9.46
2018-12-06T08:42:23.553Z,9.44
2018-12-06T08:45:05.055Z,9.46
2018-12-06T08:47:38.212Z,9.47
2018-12-06T08:50:21.200Z,9.69
2018-12-06T08:53:02.639Z,9.68
2018-12-06T08:55:44.648Z,9.71
2018-12-06T08:58:17.155Z,9.78
2018-12-06T09:00:52.039Z,10.02
2018-12-06T09:03:33.521Z,10.22
2018-12-06T09:06:14.665Z,10.35
2018-12-06T09:08:47.339Z,10.42
2018-12-06T09:11:29.276Z,10.47
2018-12-06T09:14:04.968Z,10.55
2018-12-06T09:16:46.526Z,10.53
2018-12-06T09:19:28.531Z,10.90
2018-12-06T09:22:10.417Z,10.67
2018-12-06T09:24:45.256Z,10.94
2018-12-06T09:27:18.104Z,10.99
2018-12-06T09:29:49.011Z,11.06
2018-12-06T09:32:30.808Z,11.13
2018-12-06T09:35:11.985Z,10.94
2018-12-06T09:37:45.251Z,10.97
2018-12-06T09:40:26.486Z,10.81
2018-12-06T09:43:08.348Z,10.66
2018-12-06T09:45:50.172Z,10.60
2018-12-06T09:48:23.424Z,10.55
2018-12-06T09:51:05.408Z,10.66
2018-12-06T09:53:46.515Z,10.58
2018-12-06T09:56:28.776Z,10.63
2018-12-06T09:59:01.664Z,10.70
2018-12-06T10:01:42.741Z,10.84
2018-12-06T10:04:23.811Z,11.05
2018-12-06T10:06:56.372Z,11.16
2018-12-06T10:09:38.371Z,11.12
2018-12-06T10:12:19.561Z,10.95
2018-12-06T10:14:54.866Z,11.02
2018-12-06T10:17:27.845Z,10.90
2018-12-06T10:19:59.114Z,10.84
2018-12-06T10:22:40.696Z,10.71
2018-12-06T10:25:21.764Z,10.68
2018-12-06T10:27:54.108Z,10.65
2018-12-06T10:30:26.441Z,10.62
2018-12-06T10:33:07.568Z,10.69
2018-12-06T10:35:49.472Z,10.76
2018-12-06T10:38:21.911Z,10.84
2018-12-06T10:41:03.623Z,11.01
2018-12-06T10:43:45.462Z,11.20
2018-12-06T10:46:23.127Z,11.01
2018-12-06T10:51:52.883Z,11.08
2018-12-06T10:54:34.688Z,11.08
2018-12-06T10:57:07.375Z,11.18
2018-12-06T10:59:49.212Z,11.27
2018-12-06T11:03:38.328Z,11.35
2018-12-06T11:06:19.444Z,11.44
2018-12-06T11:08:52.701Z,11.69
2018-12-06T11:11:34.660Z,11.82
2018-12-06T11:14:16.588Z,11.88
2018-12-06T11:16:58.460Z,11.78
2018-12-06T11:19:39.662Z,11.70
2018-12-06T11:22:21.500Z,11.94
2018-12-06T11:25:06.181Z,12.46
2018-12-06T11:27:38.619Z,12.48
2018-12-06T11:30:19.804Z,12.38
2018-12-06T11:33:01.700Z,13.21
2018-12-06T11:35:37.256Z,14.13
2018-12-06T11:38:12.193Z,13.76
2018-12-06T11:40:42.893Z,14.40
2018-12-06T11:43:24.816Z,14.39
2018-12-06T11:45:56.112Z,14.56
2018-12-06T11:48:29.311Z,13.81
2018-12-06T11:53:43.120Z,12.78
2018-12-06T11:56:24.969Z,12.65
2018-12-06T11:59:00.528Z,12.39
2018-12-06T12:01:41.807Z,12.08
2018-12-06T12:04:23.838Z,12.16
2018-12-06T12:06:56.975Z,12.31
2018-12-06T12:09:38.885Z,12.11
2018-12-06T12:12:20.878Z,12.16
2018-12-06T12:15:07.955Z,12.41
2018-12-06T12:17:40.907Z,12.40
2018-12-06T12:20:22.695Z,12.32
2018-12-06T12:23:03.829Z,12.20
2018-12-06T12:25:39.553Z,12.11
2018-12-06T12:28:12.087Z,12.15
2018-12-06T12:30:54.064Z,12.17
2018-12-06T12:33:35.194Z,12.31
2018-12-06T12:36:10.648Z,12.16
2018-12-06T12:38:45.687Z,12.04
2018-12-06T12:41:27.265Z,11.80
2018-12-06T12:44:09.188Z,11.73
2018-12-06T12:46:50.738Z,11.75
2018-12-06T12:49:27.924Z,11.65
2018-12-06T12:54:41.359Z,11.57
2018-12-06T12:57:14.569Z,11.70
2018-12-06T12:59:50.033Z,12.01
2018-12-06T13:02:31.391Z,12.36
2018-12-06T13:05:13.544Z,12.40
2018-12-06T13:07:48.836Z,12.29
2018-12-06T13:10:23.798Z,12.27
2018-12-06T13:13:05.297Z,12.23
2018-12-06T13:15:47.268Z,12.17
2018-12-06T13:18:22.792Z,12.16
2018-12-06T13:20:53.593Z,12.12
2018-12-06T13:23:36.540Z,12.00
2018-12-06T13:26:18.076Z,12.00
2018-12-06T13:28:51.299Z,12.03
2018-12-06T13:31:33.192Z,12.26
2018-12-06T13:34:15.157Z,12.17
2018-12-06T13:36:50.976Z,12.45
2018-12-06T13:39:32.077Z,12.70
2018-12-06T13:42:13.252Z,12.40
2018-12-06T13:44:55.181Z,12.28
2018-12-06T13:47:30.652Z,12.13
2018-12-06T13:50:12.133Z,11.97
2018-12-06T13:52:53.222Z,12.10
2018-12-06T13:55:28.740Z,11.91
2018-12-06T13:58:01.368Z,11.90
2018-12-06T14:00:43.205Z,11.85
2018-12-06T14:03:14.325Z,11.83
2018-12-06T14:05:47.440Z,11.87
2018-12-06T14:08:20.174Z,12.02
2018-12-06T14:11:01.848Z,12.04
2018-12-06T14:13:36.588Z,12.09
2018-12-06T14:16:17.872Z,11.91
2018-12-06T14:18:51.180Z,12.00
2018-12-06T14:21:33.180Z,12.01
2018-12-06T14:24:04.448Z,12.08
2018-12-06T14:26:46.427Z,12.00
2018-12-06T14:29:17.700Z,12.02
2018-12-06T14:31:58.802Z,12.08
2018-12-06T14:34:39.913Z,12.06
2018-12-06T14:37:13.240Z,12.17
2018-12-06T14:39:48.606Z,12.35
2018-12-06T14:42:30.005Z,12.16
2018-12-06T14:45:12.029Z,12.11
2018-12-06T14:47:47.680Z,12.04
2018-12-06T14:50:29.200Z,12.13
2018-12-06T14:53:00.216Z,12.32
2018-12-06T14:55:42.100Z,12.40
2018-12-06T14:58:22.764Z,12.52
2018-12-06T15:01:04.056Z,12.44
2018-12-06T15:03:38.799Z,12.28
2018-12-06T15:06:13.850Z,12.23
2018-12-06T15:08:46.476Z,12.20
2018-12-06T15:11:19.787Z,12.06
2018-12-06T15:13:53.025Z,11.96
2018-12-06T15:16:35.008Z,11.92
2018-12-06T15:19:10.632Z,11.99
2018-12-06T15:21:52.105Z,12.02
2018-12-06T15:24:27.641Z,11.93
2018-12-06T15:26:59.211Z,11.87
2018-12-06T15:29:41.348Z,11.87
2018-12-06T15:32:23.270Z,11.99
2018-12-06T15:35:05.789Z,12.09
2018-12-06T15:37:40.661Z,12.01
2018-12-06T15:40:21.952Z,11.95
2018-12-06T15:42:57.612Z,11.98
2018-12-06T15:45:38.779Z,12.04
2018-12-06T15:48:14.404Z,12.02
2018-12-06T15:50:56.023Z,11.99
2018-12-06T15:53:31.634Z,11.84
2018-12-06T15:56:13.013Z,11.81
2018-12-06T15:58:46.111Z,11.85
2018-12-06T16:01:17.244Z,11.79
2018-12-06T16:03:58.356Z,11.85
2018-12-06T16:06:34.027Z,11.81
2018-12-06T16:09:08.808Z,11.85
2018-12-06T16:11:50.783Z,11.85
2018-12-06T16:14:22.040Z,11.85
2018-12-06T16:17:03.849Z,11.83
2018-12-06T16:19:45.744Z,11.93
2018-12-06T16:22:32.849Z,11.91
2018-12-06T16:25:13.984Z,11.84
2018-12-06T16:27:47.228Z,11.81
2018-12-06T16:30:29.202Z,11.77
2018-12-06T16:33:02.399Z,11.66
2018-12-06T16:35:44.464Z,11.64
2018-12-06T16:38:17.604Z,11.60
2018-12-06T16:40:58.756Z,11.54
2018-12-06T16:43:39.838Z,11.57
2018-12-06T16:46:21.013Z,11.38
2018-12-06T16:48:54.272Z,11.23
2018-12-06T16:51:35.404Z,11.09
2018-12-06T16:54:16.541Z,11.12
2018-12-06T16:59:21.679Z,11.01
2018-12-06T17:02:03.470Z,11.03
2018-12-06T17:04:45.502Z,11.10
2018-12-06T17:07:18.767Z,11.07
2018-12-06T17:09:59.914Z,10.96
2018-12-06T17:12:40.964Z,10.77
2018-12-06T17:15:12.177Z,10.60
2018-12-06T17:17:45.178Z,10.51
2018-12-06T17:20:26.241Z,10.40
2018-12-06T17:23:08.113Z,10.41
2018-12-06T17:25:49.189Z,10.44
2018-12-06T17:28:22.534Z,10.55
2018-12-06T17:31:04.468Z,10.69
2018-12-06T17:33:37.783Z,10.57
2018-12-06T17:36:18.710Z,10.45
2018-12-06T17:38:51.892Z,10.33
2018-12-06T17:41:33.392Z,10.22
2018-12-06T17:44:15.432Z,10.23
2018-12-06T17:46:59.517Z,10.35
2018-12-06T17:49:41.497Z,10.45
2018-12-06T17:52:23.421Z,10.54
2018-12-06T17:55:05.718Z,10.57
2018-12-06T17:57:41.228Z,10.56
2018-12-06T18:10:30.440Z,10.69
2018-12-06T18:13:11.816Z,10.63
2018-12-06T18:15:44.826Z,10.50
2018-12-06T18:18:17.713Z,10.34
2018-12-06T18:20:59.177Z,10.23
2018-12-06T18:23:41.164Z,10.13
2018-12-06T18:26:12.386Z,10.08
2018-12-06T18:28:45.527Z,9.94
2018-12-06T18:31:27.621Z,9.79
2018-12-06T18:34:09.001Z,9.68
2018-12-06T18:36:50.616Z,9.72
2018-12-06T18:39:32.524Z,9.87
2018-12-06T18:42:13.759Z,9.94
2018-12-06T18:44:47.083Z,10.09
2018-12-06T18:47:20.181Z,10.18
2018-12-06T18:50:02.187Z,10.33
2018-12-06T18:52:44.196Z,10.45
2018-12-06T18:55:20.912Z,10.48
2018-12-06T18:57:54.393Z,10.71
2018-12-06T19:00:25.069Z,10.66
2018-12-06T19:03:07.392Z,10.68
2018-12-06T19:05:40.146Z,10.71
2018-12-06T19:08:13.120Z,10.65
2018-12-06T19:13:27.269Z,10.80
2018-12-06T19:16:09.320Z,10.89
2018-12-06T19:18:45.265Z,10.85
2018-12-06T19:21:27.092Z,10.80
2018-12-06T19:24:08.187Z,10.79
2018-12-06T19:26:50.162Z,10.86
2018-12-06T19:29:24.276Z,10.96
2018-12-06T19:32:03.380Z,11.03
2018-12-06T19:34:44.887Z,10.89
2018-12-06T19:37:47.472Z,10.75
2018-12-06T19:40:29.231Z,10.75
2018-12-06T19:43:12.046Z,10.73
2018-12-06T19:45:53.997Z,10.70
2018-12-06T19:48:28.968Z,10.62
2018-12-06T19:51:10.839Z,10.60
2018-12-06T19:53:53.652Z,10.57
2018-12-06T19:56:40.337Z,10.53
2018-12-06T19:59:14.018Z,10.47
2018-12-06T20:01:55.184Z,10.41
2018-12-06T20:04:37.278Z,10.33
2018-12-06T20:07:10.409Z,10.24
2018-12-06T20:09:52.317Z,10.24
2018-12-06T20:12:36.192Z,10.20
2018-12-06T20:15:18.129Z,10.18
2018-12-06T20:17:51.480Z,10.41
2018-12-06T20:20:33.380Z,10.42
2018-12-06T20:23:05.782Z,10.62
2018-12-06T20:25:47.841Z,10.67
2018-12-06T20:28:26.572Z,10.71
2018-12-06T20:31:08.689Z,10.70
2018-12-06T20:33:39.813Z,10.87
2018-12-06T20:36:21.925Z,10.88
2018-12-06T20:38:55.215Z,10.87
2018-12-06T20:41:37.143Z,10.84
2018-12-06T20:44:15.192Z,10.79
2018-12-06T20:46:57.025Z,10.77
2018-12-06T20:49:36.016Z,10.69
2018-12-06T20:52:18.380Z,10.72
2018-12-06T20:55:02.041Z,10.85
2018-12-06T20:57:37.428Z,10.83
2018-12-06T21:00:18.944Z,10.83
2018-12-06T21:03:00.807Z,10.95
2018-12-06T21:05:42.724Z,11.14
2018-12-06T21:08:18.052Z,11.03
2018-12-06T21:10:59.872Z,11.05
2018-12-06T21:13:41.790Z,10.99
2018-12-06T21:16:25.394Z,10.94
2018-12-06T21:19:05.388Z,10.93
2018-12-06T21:21:36.312Z,10.99
2018-12-06T21:24:22.064Z,10.94
2018-12-06T21:26:55.536Z,10.82
2018-12-06T21:29:37.092Z,10.74
2018-12-06T21:32:19.040Z,10.83
2018-12-06T21:35:01.112Z,11.07
2018-12-06T21:37:36.683Z,10.93
2018-12-06T21:40:07.891Z,10.83
2018-12-06T21:42:49.244Z,10.88
2018-12-06T21:45:31.351Z,10.86
2018-12-06T21:48:05.010Z,10.80
2018-12-06T21:50:39.804Z,10.93
2018-12-06T21:53:21.544Z,10.92
2018-12-06T21:55:57.040Z,10.86
2018-12-06T21:58:38.270Z,10.85
2018-12-06T22:01:18.534Z,10.83
2018-12-06T22:04:03.370Z,10.75
2018-12-06T22:06:51.061Z,10.70
2018-12-06T22:09:38.616Z,10.68
2018-12-06T22:12:18.499Z,10.66
2018-12-06T22:15:05.222Z,10.55
2018-12-06T22:17:48.279Z,10.59
2018-12-06T22:20:30.051Z,10.63
2018-12-06T22:23:14.819Z,10.66
2018-12-06T22:26:01.114Z,10.68
2018-12-06T22:28:43.207Z,10.58
2018-12-06T22:31:15.580Z,10.59
2018-12-06T22:33:57.296Z,10.58
2018-12-06T22:36:39.304Z,10.54
2018-12-06T22:39:14.069Z,10.50
2018-12-06T22:41:55.322Z,10.43
2018-12-06T22:44:37.360Z,10.44
2018-12-06T22:47:10.408Z,10.39
2018-12-06T22:49:52.377Z,10.36
2018-12-06T22:52:35.559Z,10.34
2018-12-06T22:55:06.813Z,10.50
2018-12-06T22:57:39.682Z,10.48
2018-12-06T23:00:23.692Z,10.44
2018-12-06T23:03:04.881Z,10.50
2018-12-06T23:05:36.404Z,10.50
2018-12-06T23:08:09.417Z,10.59
2018-12-06T23:10:50.554Z,10.67
2018-12-06T23:13:32.520Z,10.73
2018-12-06T23:16:13.616Z,10.90
2018-12-06T23:18:46.135Z,11.06
2018-12-06T23:21:28.029Z,11.12
2018-12-06T23:24:09.229Z,11.36
2018-12-06T23:26:50.431Z,11.44
2018-12-06T23:29:23.542Z,11.46
2018-12-06T23:32:05.392Z,11.42
2018-12-06T23:34:46.744Z,11.34
2018-12-06T23:37:17.688Z,11.44
2018-12-06T23:39:59.752Z,11.41
2018-12-06T23:42:41.534Z,11.28
2018-12-06T23:45:23.657Z,11.24
2018-12-06T23:47:55.984Z,11.30
2018-12-06T23:50:38.000Z,11.16
2018-12-06T23:53:19.877Z,11.19
2018-12-06T23:56:02.135Z,11.09
2018-12-06T23:58:37.527Z,11.03
